Time;durP1;ratioP1;P1;durP2;ratioP2;P2;SDS_P1;SDS_P2;PMS_P1;PMS_P2;Temp;Humidity;BMP_temperature;BMP_pressure;BME280_temperature;BME280_humidity;BME280_pressure;Samples;Min_cycle;Max_cycle;Signal;HPM_P1;HPM_P2
2023/08/20 00:00:28;;;;;;;9.50;5.13;;;15.40;99.90;;;;;;5051809;28;20108;-46
2023/08/20 00:03:13;;;;;;;7.00;4.97;;;15.30;99.90;;;;;;5049608;28;20391;-43
2023/08/20 00:05:40;;;;;;;9.45;6.05;;;15.30;99.90;;;;;;5050026;28;20380;-40
2023/08/20 00:08:06;;;;;;;7.80;5.38;;;15.30;99.90;;;;;;5056357;28;20044;-39
2023/08/20 00:10:31;;;;;;;9.45;5.35;;;15.20;99.90;;;;;;5054677;28;20129;-45
2023/08/20 00:12:58;;;;;;;10.65;6.30;;;15.30;99.90;;;;;;5050752;28;20480;-41
2023/08/20 00:15:26;;;;;;;10.60;6.40;;;15.20;99.90;;;;;;5048564;28;20083;-43
2023/08/20 00:17:53;;;;;;;9.88;6.57;;;15.20;99.90;;;;;;5054839;28;20110;-41
2023/08/20 00:20:19;;;;;;;13.95;6.68;;;15.10;99.90;;;;;;5049455;28;20131;-42
2023/08/20 00:22:46;;;;;;;9.23;6.13;;;15.10;99.90;;;;;;5053418;28;20072;-41
2023/08/20 00:25:13;;;;;;;8.60;6.13;;;15.10;99.90;;;;;;5049355;28;20151;-43
2023/08/20 00:27:40;;;;;;;11.55;6.90;;;15.10;99.90;;;;;;5047426;28;20040;-42
2023/08/20 00:30:06;;;;;;;17.23;8.50;;;15.10;99.90;;;;;;5044678;28;20525;-43
2023/08/20 00:32:32;;;;;;;14.43;8.30;;;15.10;99.90;;;;;;5044668;28;20049;-43
2023/08/20 00:34:58;;;;;;;11.73;6.88;;;15.10;99.90;;;;;;5053739;28;20052;-42
2023/08/20 00:37:23;;;;;;;13.55;7.13;;;15.10;99.90;;;;;;5056818;28;20499;-43
2023/08/20 00:39:49;;;;;;;12.63;7.15;;;15.10;99.90;;;;;;5053999;28;20049;-43
2023/08/20 00:42:15;;;;;;;13.93;7.20;;;15.10;99.90;;;;;;5052521;28;20055;-41
2023/08/20 00:44:44;;;;;;;9.73;7.10;;;15.10;99.90;;;;;;5052596;28;20538;-43
2023/08/20 00:47:10;;;;;;;11.82;7.47;;;15.10;99.90;;;;;;5057437;28;20403;-43
2023/08/20 00:49:36;;;;;;;11.02;7.00;;;15.10;99.90;;;;;;5053919;28;20050;-40
2023/08/20 00:52:03;;;;;;;11.55;6.20;;;15.10;99.90;;;;;;5054721;28;20106;-44
2023/08/20 00:54:29;;;;;;;10.35;6.40;;;15.10;99.90;;;;;;5046129;28;20040;-39
2023/08/20 00:56:55;;;;;;;12.23;6.72;;;15.10;99.90;;;;;;5052294;28;20040;-44
2023/08/20 00:59:21;;;;;;;13.40;7.57;;;15.10;99.90;;;;;;5053625;28;20258;-40
2023/08/20 01:01:47;;;;;;;12.23;7.82;;;15.10;99.90;;;;;;5054597;28;20036;-44
2023/08/20 01:04:12;;;;;;;10.25;6.35;;;15.00;99.90;;;;;;5048841;28;20146;-42
2023/08/20 01:06:38;;;;;;;11.25;6.35;;;15.00;99.90;;;;;;5046903;28;20091;-43
2023/08/20 01:09:36;;;;;;;9.82;5.70;;;15.00;99.90;;;;;;5045895;28;20136;-40
2023/08/20 01:12:03;;;;;;;20.40;7.25;;;14.90;99.90;;;;;;5044862;28;20040;-42
2023/08/20 01:14:29;;;;;;;13.82;6.72;;;14.90;99.90;;;;;;5050603;28;20102;-42
2023/08/20 01:16:54;;;;;;;11.57;6.63;;;14.90;99.90;;;;;;5043495;28;20143;-39
2023/08/20 01:19:22;;;;;;;10.40;6.82;;;14.90;99.90;;;;;;5050585;28;20068;-43
2023/08/20 01:22:07;;;;;;;11.77;7.13;;;14.80;99.90;;;;;;5046878;28;20567;-40
2023/08/20 01:25:11;;;;;;;11.93;7.57;;;14.90;99.90;;;;;;5046080;28;20067;-47
2023/08/20 01:27:55;;;;;;;11.80;6.80;;;14.80;99.90;;;;;;5043914;28;20044;-42
2023/08/20 01:30:22;;;;;;;12.02;7.43;;;14.80;99.90;;;;;;5042789;28;20316;-38
2023/08/20 01:32:50;;;;;;;12.88;7.70;;;14.80;99.90;;;;;;5045510;28;20593;-43
2023/08/20 01:35:16;;;;;;;15.07;8.45;;;14.70;99.90;;;;;;5049600;28;20057;-39
2023/08/20 01:37:43;;;;;;;12.10;7.70;;;14.70;99.90;;;;;;5047107;28;20075;-42
2023/08/20 01:40:10;;;;;;;11.15;6.50;;;14.70;99.90;;;;;;5050218;28;20143;-43
2023/08/20 01:42:39;;;;;;;10.90;7.97;;;14.70;99.90;;;;;;5052549;28;20040;-43
2023/08/20 01:45:06;;;;;;;12.68;8.55;;;14.70;99.90;;;;;;5049051;28;20077;-42
2023/08/20 01:47:33;;;;;;;15.60;8.50;;;14.70;99.90;;;;;;5048252;28;20036;-44
2023/08/20 01:49:58;;;;;;;16.73;9.13;;;14.80;99.90;;;;;;5050062;28;20048;-40
2023/08/20 01:52:24;;;;;;;10.75;8.57;;;14.80;99.90;;;;;;5051153;28;20387;-41
2023/08/20 01:54:50;;;;;;;12.85;8.45;;;14.80;99.90;;;;;;5054326;28;20345;-39
2023/08/20 01:57:16;;;;;;;16.17;9.25;;;14.80;99.90;;;;;;5049097;28;20041;-44
2023/08/20 01:59:42;;;;;;;15.25;10.02;;;14.80;99.90;;;;;;5048763;28;20547;-42
2023/08/20 02:02:08;;;;;;;14.73;9.00;;;14.80;99.90;;;;;;5040291;28;20229;-43
2023/08/20 02:04:33;;;;;;;13.70;10.13;;;14.70;99.90;;;;;;5041657;28;20147;-42
2023/08/20 02:06:59;;;;;;;14.30;10.32;;;14.70;99.90;;;;;;5041990;28;20406;-44
2023/08/20 02:09:25;;;;;;;17.05;9.80;;;14.80;99.90;;;;;;5050188;28;20566;-42
2023/08/20 02:11:51;;;;;;;15.95;10.60;;;14.80;99.90;;;;;;5048973;28;20478;-42
2023/08/20 02:14:16;;;;;;;11.77;9.45;;;14.70;99.90;;;;;;5042143;28;20035;-44
2023/08/20 02:16:42;;;;;;;14.77;9.32;;;14.70;99.90;;;;;;5043499;28;20130;-40
2023/08/20 02:19:08;;;;;;;15.15;10.60;;;14.70;99.90;;;;;;5044126;28;20600;-43
2023/08/20 02:21:34;;;;;;;14.13;9.70;;;14.70;99.90;;;;;;5046162;28;20462;-45
2023/08/20 02:24:00;;;;;;;16.70;10.63;;;14.70;99.90;;;;;;5049672;28;20047;-41
2023/08/20 02:26:26;;;;;;;13.85;9.93;;;14.80;99.90;;;;;;5050523;28;20052;-40
2023/08/20 02:28:51;;;;;;;15.60;9.52;;;14.80;99.90;;;;;;5046123;28;20520;-42
2023/08/20 02:31:17;;;;;;;17.80;10.18;;;14.70;99.90;;;;;;5051183;28;20064;-42
2023/08/20 02:33:43;;;;;;;19.00;10.80;;;14.70;99.90;;;;;;5052179;28;20041;-44
2023/08/20 02:36:09;;;;;;;16.48;9.32;;;14.80;99.90;;;;;;5053461;28;20040;-42
2023/08/20 02:38:35;;;;;;;14.73;10.05;;;14.70;99.90;;;;;;5042541;28;20033;-43
2023/08/20 02:41:02;;;;;;;15.98;10.25;;;14.80;99.90;;;;;;5053066;28;20040;-41
2023/08/20 02:43:29;;;;;;;15.75;10.25;;;14.80;99.90;;;;;;5083006;28;20084;-44
2023/08/20 02:45:54;;;;;;;19.20;11.80;;;14.80;99.90;;;;;;5046507;28;20036;-41
2023/08/20 02:48:20;;;;;;;16.88;11.18;;;14.70;99.90;;;;;;5047557;28;20438;-39
2023/08/20 02:50:46;;;;;;;16.33;11.15;;;14.70;99.90;;;;;;5048193;28;20032;-43
2023/08/20 02:53:12;;;;;;;19.05;10.45;;;14.70;99.90;;;;;;5042556;28;20505;-42
2023/08/20 02:55:38;;;;;;;20.42;11.35;;;14.70;99.90;;;;;;5045716;28;20044;-41
2023/08/20 02:58:04;;;;;;;13.45;11.05;;;14.80;99.90;;;;;;5051579;28;20037;-40
2023/08/20 03:00:31;;;;;;;17.60;12.20;;;14.70;99.90;;;;;;5052489;28;20581;-43
2023/08/20 03:02:57;;;;;;;17.33;12.02;;;14.80;99.90;;;;;;5054772;28;20039;-43
2023/08/20 03:05:23;;;;;;;14.18;10.77;;;14.70;99.90;;;;;;5055274;28;20045;-46
2023/08/20 03:07:49;;;;;;;14.88;11.68;;;14.60;99.90;;;;;;5047157;28;20048;-42
2023/08/20 03:10:14;;;;;;;15.68;13.00;;;14.60;99.90;;;;;;5051555;28;20048;-42
2023/08/20 03:12:40;;;;;;;17.42;11.85;;;14.70;99.90;;;;;;5048837;28;20048;-43
2023/08/20 03:15:07;;;;;;;16.20;11.77;;;14.60;99.90;;;;;;5050518;28;20045;-43
2023/08/20 03:17:32;;;;;;;18.45;12.20;;;14.60;99.90;;;;;;5054569;28;20039;-41
2023/08/20 03:19:59;;;;;;;16.35;12.93;;;14.50;99.90;;;;;;5045183;28;20467;-41
2023/08/20 03:22:26;;;;;;;19.55;11.00;;;14.50;99.90;;;;;;5052062;28;20151;-42
2023/08/20 03:24:53;;;;;;;17.23;12.15;;;14.50;99.90;;;;;;5053364;28;20044;-45
2023/08/20 03:27:19;;;;;;;16.65;11.57;;;14.50;99.90;;;;;;5050488;28;20043;-44
2023/08/20 03:29:45;;;;;;;19.67;11.57;;;14.50;99.90;;;;;;5048068;28;20044;-42
2023/08/20 03:32:11;;;;;;;18.80;12.15;;;14.50;99.90;;;;;;5045539;28;20048;-41
2023/08/20 03:34:37;;;;;;;17.17;11.13;;;14.50;99.90;;;;;;5047345;28;20074;-43
2023/08/20 03:37:04;;;;;;;23.48;13.70;;;14.40;99.90;;;;;;5055771;28;20075;-40
2023/08/20 03:39:31;;;;;;;18.85;12.20;;;14.40;99.90;;;;;;5048996;28;20090;-41
2023/08/20 03:41:57;;;;;;;17.83;12.00;;;14.40;99.90;;;;;;5048330;28;20139;-42
2023/08/20 03:44:23;;;;;;;15.25;10.90;;;14.40;99.90;;;;;;5045153;28;20721;-42
2023/08/20 03:46:49;;;;;;;16.00;10.70;;;14.40;99.90;;;;;;5053530;28;20059;-41
2023/08/20 03:49:14;;;;;;;15.68;10.30;;;14.30;99.90;;;;;;5047767;28;20044;-43
2023/08/20 03:51:42;;;;;;;13.75;9.88;;;14.40;99.90;;;;;;5044234;28;20076;-42
2023/08/20 03:54:08;;;;;;;21.00;12.00;;;14.30;99.90;;;;;;5052504;28;20080;-40
2023/08/20 03:56:34;;;;;;;19.88;10.77;;;14.30;99.90;;;;;;5044462;28;20052;-44
2023/08/20 03:58:59;;;;;;;15.80;10.00;;;14.30;99.90;;;;;;5046012;28;20291;-43
2023/08/20 04:01:25;;;;;;;16.90;10.43;;;14.40;99.90;;;;;;5079659;27;20383;-42
2023/08/20 04:03:50;;;;;;;13.95;9.85;;;14.40;99.90;;;;;;5047140;28;20032;-39
2023/08/20 04:06:16;;;;;;;20.90;10.70;;;14.40;99.90;;;;;;5044663;28;20351;-43
2023/08/20 04:08:42;;;;;;;15.38;9.95;;;14.40;99.90;;;;;;5049978;28;20094;-42
2023/08/20 04:11:08;;;;;;;16.02;10.05;;;14.50;99.90;;;;;;5055152;28;20556;-46
2023/08/20 04:13:34;;;;;;;16.98;10.23;;;14.50;99.90;;;;;;5084614;27;20055;-43
2023/08/20 04:16:00;;;;;;;17.85;9.85;;;14.50;99.90;;;;;;5047804;28;20456;-40
2023/08/20 04:18:26;;;;;;;19.60;9.85;;;14.50;99.90;;;;;;5050877;28;20039;-39
2023/08/20 04:20:53;;;;;;;13.90;10.13;;;14.50;99.90;;;;;;5053577;28;20040;-42
2023/08/20 04:23:19;;;;;;;14.15;9.30;;;14.60;99.90;;;;;;5054737;28;20086;-39
2023/08/20 04:25:45;;;;;;;17.55;10.05;;;14.60;99.90;;;;;;5055888;28;20094;-43
2023/08/20 04:28:12;;;;;;;14.30;11.13;;;14.50;99.90;;;;;;5055112;28;20048;-43
2023/08/20 04:30:38;;;;;;;16.45;10.20;;;14.50;99.90;;;;;;5053380;28;20040;-39
2023/08/20 04:33:04;;;;;;;18.00;10.45;;;14.50;99.90;;;;;;5055889;28;20102;-40
2023/08/20 04:35:30;;;;;;;16.52;10.15;;;14.40;99.90;;;;;;5053059;28;20044;-42
2023/08/20 04:37:56;;;;;;;13.43;9.85;;;14.50;99.90;;;;;;5049977;28;20047;-38
2023/08/20 04:40:22;;;;;;;19.60;10.05;;;14.60;99.90;;;;;;5049897;28;20040;-41
2023/08/20 04:42:48;;;;;;;16.25;10.20;;;14.60;99.90;;;;;;5050761;28;20043;-41
2023/08/20 04:45:14;;;;;;;14.07;10.40;;;14.70;99.90;;;;;;5049184;28;20501;-39
2023/08/20 04:47:39;;;;;;;18.73;10.68;;;14.70;99.90;;;;;;5050872;28;20037;-42
2023/08/20 04:50:08;;;;;;;13.60;10.65;;;14.70;99.90;;;;;;5054390;28;20516;-43
2023/08/20 04:52:34;;;;;;;13.77;10.18;;;14.70;99.90;;;;;;5043944;28;20041;-39
2023/08/20 04:55:00;;;;;;;18.55;11.82;;;14.70;99.90;;;;;;5054904;28;20036;-42
2023/08/20 04:57:26;;;;;;;15.70;11.80;;;14.70;99.90;;;;;;5077714;27;20106;-40
2023/08/20 04:59:51;;;;;;;20.52;12.00;;;14.70;99.90;;;;;;5056016;28;20029;-41
2023/08/20 05:02:17;;;;;;;15.30;12.63;;;14.80;99.90;;;;;;5045037;28;20047;-43
2023/08/20 05:04:43;;;;;;;19.85;11.93;;;14.80;99.90;;;;;;5081307;28;20059;-43
2023/08/20 05:07:09;;;;;;;17.77;11.52;;;14.80;99.90;;;;;;5049002;28;20048;-39
2023/08/20 05:09:35;;;;;;;17.77;11.23;;;14.80;99.90;;;;;;5052986;28;20097;-43
2023/08/20 05:12:00;;;;;;;16.92;11.50;;;14.90;99.90;;;;;;5048168;28;20046;-44
2023/08/20 05:14:26;;;;;;;14.65;10.95;;;14.90;99.90;;;;;;5049158;28;20045;-43
2023/08/20 05:16:52;;;;;;;18.92;11.30;;;15.00;99.90;;;;;;5048956;28;20489;-42
2023/08/20 05:19:17;;;;;;;13.18;9.63;;;15.20;99.90;;;;;;5052555;28;20037;-43
2023/08/20 05:21:43;;;;;;;17.15;10.20;;;15.50;99.90;;;;;;5051900;28;20068;-44
2023/08/20 05:24:09;;;;;;;14.27;9.35;;;16.10;99.90;;;;;;5050648;28;20047;-41
2023/08/20 05:26:35;;;;;;;15.57;8.57;;;17.20;99.90;;;;;;5046859;28;20393;-44
2023/08/20 05:29:00;;;;;;;12.57;7.85;;;18.20;99.90;;;;;;5053199;28;20110;-43
2023/08/20 05:31:26;;;;;;;12.40;7.65;;;19.20;99.90;;;;;;5050686;28;20048;-42
2023/08/20 05:33:52;;;;;;;12.52;6.88;;;20.30;99.90;;;;;;5050063;28;20040;-45
2023/08/20 05:36:17;;;;;;;12.25;7.10;;;21.10;99.90;;;;;;5047835;28;20037;-42
2023/08/20 05:38:43;;;;;;;10.15;6.95;;;21.90;99.90;;;;;;5048853;28;20547;-44
2023/08/20 05:41:09;;;;;;;11.30;6.95;;;22.40;99.90;;;;;;5048460;28;20044;-44
2023/08/20 05:43:36;;;;;;;9.25;6.00;;;23.00;99.90;;;;;;5051527;28;20048;-43
2023/08/20 05:46:02;;;;;;;10.25;6.15;;;23.40;99.90;;;;;;5053363;28;20045;-43
2023/08/20 05:48:28;;;;;;;11.13;5.95;;;23.60;99.90;;;;;;5054400;28;20036;-41
2023/08/20 05:50:54;;;;;;;13.63;6.68;;;23.90;99.90;;;;;;5048878;28;20045;-43
2023/08/20 05:53:19;;;;;;;10.10;6.63;;;24.10;99.90;;;;;;5047348;28;20118;-46
2023/08/20 05:55:45;;;;;;;12.23;6.20;;;24.30;99.90;;;;;;5047547;28;20219;-46
2023/08/20 05:58:11;;;;;;;10.50;6.03;;;24.70;99.90;;;;;;5044017;28;20059;-45
2023/08/20 06:00:37;;;;;;;8.90;5.10;;;25.10;99.90;;;;;;5046042;28;20048;-42
2023/08/20 06:03:02;;;;;;;6.40;4.93;;;25.30;99.90;;;;;;5047362;28;20044;-40
2023/08/20 06:05:28;;;;;;;7.93;4.95;;;25.70;99.90;;;;;;5054641;28;20082;-42
2023/08/20 06:07:54;;;;;;;8.52;4.80;;;26.10;99.90;;;;;;5050780;28;20047;-43
2023/08/20 06:10:19;;;;;;;9.52;4.47;;;26.60;99.90;;;;;;5043870;28;20398;-48
2023/08/20 06:12:45;;;;;;;10.77;5.43;;;26.90;99.90;;;;;;5054188;28;20173;-41
2023/08/20 06:15:11;;;;;;;9.05;4.78;;;27.10;99.90;;;;;;5052660;28;20098;-47
2023/08/20 06:17:36;;;;;;;9.63;5.00;;;27.40;99.90;;;;;;5043102;28;20447;-45
2023/08/20 06:20:08;;;;;;;9.88;5.25;;;27.70;99.90;;;;;;5046277;28;20487;-41
2023/08/20 06:22:34;;;;;;;9.70;4.47;;;27.90;99.60;;;;;;5045326;28;20406;-46
2023/08/20 06:25:00;;;;;;;12.27;5.32;;;27.80;99.40;;;;;;5044469;28;20040;-42
2023/08/20 06:27:26;;;;;;;11.65;4.30;;;28.00;99.10;;;;;;5054083;28;20041;-44
2023/08/20 06:29:51;;;;;;;9.65;4.60;;;28.20;98.90;;;;;;5050728;28;20037;-48
2023/08/20 06:32:17;;;;;;;10.82;5.07;;;28.40;98.70;;;;;;5046238;28;20043;-49
2023/08/20 06:34:43;;;;;;;8.95;4.35;;;28.60;98.60;;;;;;5047024;28;20029;-47
2023/08/20 06:37:08;;;;;;;6.90;4.18;;;28.60;99.10;;;;;;5043253;28;20536;-41
2023/08/20 06:39:34;;;;;;;8.68;4.07;;;28.70;98.90;;;;;;5045890;28;20186;-48
2023/08/20 06:42:00;;;;;;;10.85;4.32;;;28.70;98.80;;;;;;5048121;28;20364;-45
2023/08/20 06:44:26;;;;;;;9.73;4.20;;;28.80;98.60;;;;;;5051979;28;20135;-49
2023/08/20 06:46:51;;;;;;;8.73;4.47;;;28.90;99.50;;;;;;5058741;28;20044;-47
2023/08/20 06:49:17;;;;;;;9.43;4.60;;;28.80;99.10;;;;;;5052959;28;20036;-48
2023/08/20 06:51:43;;;;;;;10.07;4.43;;;28.80;99.10;;;;;;5047722;28;20072;-44
2023/08/20 06:54:09;;;;;;;9.38;3.85;;;28.70;99.30;;;;;;5050779;28;20585;-42
2023/08/20 06:56:35;;;;;;;9.25;4.18;;;28.60;99.60;;;;;;5051808;28;20041;-42
2023/08/20 06:59:03;;;;;;;8.35;4.07;;;28.90;99.40;;;;;;5050318;28;20048;-49
2023/08/20 07:01:29;;;;;;;11.30;4.38;;;28.90;99.10;;;;;;5054048;28;20051;-42
2023/08/20 07:03:54;;;;;;;11.55;4.63;;;28.90;99.60;;;;;;5054871;28;20054;-49
2023/08/20 07:06:20;;;;;;;10.93;4.28;;;28.20;99.90;;;;;;5042145;28;20048;-47
2023/08/20 07:08:46;;;;;;;10.27;4.50;;;27.60;99.90;;;;;;5049225;28;20043;-49
2023/08/20 07:11:11;;;;;;;12.32;4.50;;;26.80;99.90;;;;;;5045719;28;20102;-48
2023/08/20 07:13:37;;;;;;;11.35;4.30;;;26.40;99.90;;;;;;5049010;28;20045;-45
2023/08/20 07:16:03;;;;;;;15.23;5.15;;;26.20;99.90;;;;;;5084479;27;20044;-45
2023/08/20 07:18:28;;;;;;;13.43;4.28;;;25.70;99.90;;;;;;5053758;28;20033;-41
2023/08/20 07:20:55;;;;;;;16.48;4.70;;;25.90;99.90;;;;;;5052342;28;20039;-41
2023/08/20 07:23:21;;;;;;;13.75;4.60;;;25.80;99.90;;;;;;5047666;28;20082;-41
2023/08/20 07:25:48;;;;;;;12.82;4.00;;;25.60;99.90;;;;;;5052799;28;20056;-50
2023/08/20 07:28:14;;;;;;;16.75;4.50;;;25.50;99.90;;;;;;5052956;28;20040;-43
2023/08/20 07:30:40;;;;;;;11.25;4.47;;;25.60;99.90;;;;;;5054497;28;20044;-44
2023/08/20 07:33:06;;;;;;;12.85;3.92;;;25.60;99.90;;;;;;5055077;28;20388;-42
2023/08/20 07:35:32;;;;;;;15.57;4.80;;;25.60;99.90;;;;;;5057621;28;20063;-46
2023/08/20 07:37:58;;;;;;;13.38;3.85;;;25.60;99.90;;;;;;5053151;28;20055;-44
2023/08/20 07:40:23;;;;;;;16.25;5.65;;;25.40;99.90;;;;;;5057912;28;20463;-44
2023/08/20 07:42:50;;;;;;;10.82;4.50;;;25.50;99.90;;;;;;5052709;28;20498;-42
2023/08/20 07:45:16;;;;;;;14.45;4.40;;;25.40;99.90;;;;;;5051617;28;20128;-45
2023/08/20 07:47:42;;;;;;;12.07;3.67;;;25.20;99.90;;;;;;5052171;28;20119;-47
2023/08/20 07:50:08;;;;;;;10.98;4.13;;;25.20;99.90;;;;;;5056123;28;20052;-45
2023/08/20 07:52:34;;;;;;;15.77;4.78;;;25.30;99.90;;;;;;5052855;28;20041;-44
2023/08/20 07:55:00;;;;;;;10.77;3.70;;;25.30;99.90;;;;;;5055749;28;20426;-41
2023/08/20 07:57:25;;;;;;;14.60;4.43;;;25.30;99.90;;;;;;5054906;28;20151;-44
2023/08/20 07:59:51;;;;;;;13.57;4.30;;;25.40;99.90;;;;;;5052069;28;21685;-41
2023/08/20 08:02:17;;;;;;;11.02;3.75;;;25.30;99.90;;;;;;5054442;28;20052;-47
2023/08/20 08:04:43;;;;;;;12.07;4.10;;;25.10;99.90;;;;;;5056176;28;20055;-47
2023/08/20 08:07:10;;;;;;;12.95;4.22;;;25.10;99.90;;;;;;5055619;28;20423;-44
2023/08/20 08:09:36;;;;;;;13.68;4.47;;;25.00;99.90;;;;;;5046933;28;20036;-44
2023/08/20 08:12:02;;;;;;;12.65;3.42;;;24.80;99.90;;;;;;5053835;28;20367;-48
2023/08/20 08:14:28;;;;;;;12.73;3.88;;;24.80;99.90;;;;;;5053420;28;20047;-47
2023/08/20 08:16:54;;;;;;;13.40;4.78;;;24.60;99.90;;;;;;5053098;28;20083;-48
2023/08/20 08:19:20;;;;;;;12.77;3.72;;;24.80;99.90;;;;;;5053125;28;20390;-50
2023/08/20 08:21:46;;;;;;;11.50;3.63;;;24.80;99.90;;;;;;5050233;28;20047;-47
2023/08/20 08:24:13;;;;;;;10.70;3.83;;;24.90;99.90;;;;;;5056027;28;20048;-45
2023/08/20 08:26:39;;;;;;;13.93;4.60;;;24.90;99.90;;;;;;5054146;28;20078;-44
2023/08/20 08:29:06;;;;;;;12.48;4.43;;;24.90;99.90;;;;;;5055292;28;20036;-46
2023/08/20 08:31:32;;;;;;;10.23;4.18;;;24.80;99.90;;;;;;5052044;28;20746;-47
2023/08/20 08:33:58;;;;;;;11.40;3.20;;;25.00;99.90;;;;;;5054513;28;20048;-45
2023/08/20 08:36:26;;;;;;;11.90;4.03;;;25.10;99.90;;;;;;5052975;28;20516;-45
2023/08/20 08:38:53;;;;;;;9.77;3.28;;;25.00;99.90;;;;;;5052639;28;20037;-46
2023/08/20 08:41:23;;;;;;;11.00;3.22;;;25.00;99.90;;;;;;5052329;28;20856;-46
2023/08/20 08:43:49;;;;;;;12.07;4.20;;;25.20;99.90;;;;;;5054320;28;20071;-41
2023/08/20 08:46:16;;;;;;;12.95;3.55;;;25.20;99.90;;;;;;5052187;28;20126;-43
2023/08/20 08:48:46;;;;;;;13.43;4.03;;;25.50;99.90;;;;;;5055648;28;20112;-47
2023/08/20 08:51:16;;;;;;;9.85;3.20;;;25.50;99.90;;;;;;5052118;28;20056;-46
2023/08/20 08:53:46;;;;;;;11.73;3.67;;;25.20;99.90;;;;;;5056242;28;20052;-45
2023/08/20 08:56:11;;;;;;;10.38;3.80;;;25.20;99.90;;;;;;5054580;28;20056;-43
2023/08/20 08:58:37;;;;;;;9.80;3.30;;;24.90;99.90;;;;;;5052934;28;20067;-42
2023/08/20 09:01:03;;;;;;;12.02;3.60;;;24.90;99.90;;;;;;5052882;28;20079;-43
2023/08/20 09:03:28;;;;;;;9.88;3.08;;;24.80;99.90;;;;;;5052163;28;20105;-44
2023/08/20 09:06:09;;;;;;;14.05;3.35;;;24.80;99.90;;;;;;5055064;28;20071;-45
2023/08/20 09:08:35;;;;;;;7.63;2.95;;;24.90;99.90;;;;;;5052305;28;20033;-41
2023/08/20 09:11:01;;;;;;;11.52;3.78;;;25.10;99.90;;;;;;5051603;28;20067;-44
2023/08/20 09:13:38;;;;;;;11.10;3.00;;;25.20;99.90;;;;;;5053039;28;20052;-41
2023/08/20 09:16:06;;;;;;;10.35;2.83;;;25.30;99.90;;;;;;5052551;28;20040;-44
2023/08/20 09:18:37;;;;;;;11.18;3.42;;;25.30;99.90;;;;;;5049236;28;20914;-49
2023/08/20 09:21:09;;;;;;;10.52;3.10;;;25.40;99.90;;;;;;5050928;28;21107;-46
2023/08/20 09:23:36;;;;;;;10.60;3.70;;;25.40;99.90;;;;;;5052453;28;20169;-41
2023/08/20 09:26:03;;;;;;;12.65;3.17;;;25.10;99.90;;;;;;5052249;28;20123;-50
2023/08/20 09:28:29;;;;;;;8.27;3.60;;;24.90;99.90;;;;;;5052341;28;20048;-45
2023/08/20 09:31:01;;;;;;;11.27;2.80;;;24.90;99.90;;;;;;5049574;28;20044;-41
2023/08/20 09:33:27;;;;;;;11.60;3.20;;;25.00;99.90;;;;;;5053915;28;20453;-43
2023/08/20 09:35:56;;;;;;;8.88;3.15;;;25.00;99.90;;;;;;5050453;28;20046;-47
2023/08/20 09:38:23;;;;;;;13.50;4.22;;;24.90;99.90;;;;;;5050239;28;20041;-49
2023/08/20 09:40:52;;;;;;;8.77;3.38;;;25.00;99.90;;;;;;5050329;28;20049;-46
2023/08/20 09:43:18;;;;;;;10.60;3.30;;;24.90;99.90;;;;;;5052882;28;20044;-46
2023/08/20 09:45:46;;;;;;;8.90;2.67;;;24.80;99.90;;;;;;5050718;28;20048;-50
2023/08/20 09:48:18;;;;;;;12.60;3.40;;;24.90;99.90;;;;;;5052679;28;20629;-43
2023/08/20 09:50:46;;;;;;;7.93;2.70;;;25.10;99.90;;;;;;5051566;28;20041;-46
2023/08/20 09:53:45;;;;;;;10.93;3.33;;;25.10;99.90;;;;;;5053542;28;20402;-45
2023/08/20 09:56:28;;;;;;;9.55;3.17;;;25.30;99.90;;;;;;5049259;28;20059;-43
2023/08/20 09:58:55;;;;;;;10.80;3.33;;;25.20;99.90;;;;;;5033776;28;20052;-46
2023/08/20 10:01:21;;;;;;;8.10;2.55;;;25.30;99.90;;;;;;5048329;28;20134;-43
2023/08/20 10:03:46;;;;;;;13.95;3.90;;;25.30;99.90;;;;;;5050512;28;20637;-40
2023/08/20 10:06:12;;;;;;;8.60;2.58;;;25.30;99.90;;;;;;5068027;28;20453;-47
2023/08/20 10:08:38;;;;;;;9.27;3.38;;;25.30;99.90;;;;;;5049192;28;20045;-49
2023/08/20 10:11:04;;;;;;;10.90;3.60;;;25.30;99.90;;;;;;5050609;28;20086;-44
2023/08/20 10:13:30;;;;;;;13.13;3.22;;;25.40;99.90;;;;;;5048401;28;20095;-44
2023/08/20 10:15:56;;;;;;;10.23;2.97;;;25.50;99.90;;;;;;5048925;28;20044;-45
2023/08/20 10:18:22;;;;;;;8.18;3.10;;;25.70;99.90;;;;;;5047412;28;20623;-46
2023/08/20 10:20:51;;;;;;;9.88;2.90;;;25.70;99.90;;;;;;5048142;28;20055;-45
2023/08/20 10:23:22;;;;;;;9.88;2.70;;;25.80;99.90;;;;;;5044717;28;20045;-50
2023/08/20 10:25:48;;;;;;;11.73;3.40;;;25.80;99.90;;;;;;5051600;28;20082;-49
2023/08/20 10:28:20;;;;;;;11.43;3.75;;;25.80;99.90;;;;;;5047954;28;20678;-42
2023/08/20 10:31:18;;;;;;;13.32;4.07;;;25.80;99.90;;;;;;5051274;28;20481;-41
2023/08/20 10:33:50;;;;;;;13.25;3.28;;;26.10;99.90;;;;;;5028603;28;20052;-47
2023/08/20 10:36:39;;;;;;;11.13;3.10;;;26.40;99.90;;;;;;5029678;28;20057;-46
2023/08/20 10:39:05;;;;;;;11.05;3.10;;;26.40;99.90;;;;;;5028335;28;20037;-43
2023/08/20 10:41:33;;;;;;;10.98;2.97;;;26.40;99.90;;;;;;5028818;28;20638;-49
2023/08/20 10:43:59;;;;;;;10.38;3.30;;;26.40;99.90;;;;;;5028435;28;20057;-44
2023/08/20 10:46:31;;;;;;;9.68;3.28;;;26.30;99.90;;;;;;5030640;28;20397;-42
2023/08/20 10:49:01;;;;;;;8.75;3.22;;;26.10;99.90;;;;;;5030764;28;20388;-47
2023/08/20 10:51:33;;;;;;;11.00;2.95;;;26.20;99.90;;;;;;5029228;28;20080;-48
2023/08/20 10:54:05;;;;;;;10.50;3.15;;;26.20;99.90;;;;;;5024187;28;20041;-50
2023/08/20 10:56:38;;;;;;;9.50;3.47;;;26.10;99.90;;;;;;5027590;28;20063;-50
2023/08/20 10:59:26;;;;;;;11.13;3.47;;;26.00;99.90;;;;;;5028284;28;20040;-45
2023/08/20 11:01:54;;;;;;;12.88;3.10;;;26.10;99.90;;;;;;5027350;28;20187;-43
2023/08/20 11:04:22;;;;;;;11.20;2.95;;;26.10;99.90;;;;;;5029585;28;20040;-48
2023/08/20 11:06:52;;;;;;;8.60;2.95;;;26.30;99.90;;;;;;5010197;28;20522;-48
2023/08/20 11:09:18;;;;;;;11.20;3.15;;;26.40;99.90;;;;;;5036838;28;20048;-45
2023/08/20 11:11:44;;;;;;;8.80;2.90;;;26.40;99.90;;;;;;5052563;28;20414;-48
2023/08/20 11:14:14;;;;;;;12.00;3.20;;;26.40;99.90;;;;;;5053755;28;20556;-40
2023/08/20 11:16:40;;;;;;;9.07;2.92;;;26.50;99.90;;;;;;5052169;28;20496;-42
2023/08/20 11:19:08;;;;;;;11.40;3.10;;;26.50;99.90;;;;;;5050350;28;20044;-49
2023/08/20 11:21:35;;;;;;;8.23;2.80;;;26.50;99.90;;;;;;5052343;28;20449;-46
2023/08/20 11:24:04;;;;;;;11.07;3.42;;;26.40;99.90;;;;;;5051761;28;20441;-48
2023/08/20 11:26:30;;;;;;;12.00;3.25;;;26.40;99.90;;;;;;5055888;28;20386;-51
2023/08/20 11:28:56;;;;;;;12.98;3.50;;;26.30;99.90;;;;;;5057800;28;20040;-44
2023/08/20 11:31:22;;;;;;;9.43;3.05;;;26.00;99.90;;;;;;5054261;28;20475;-46
2023/08/20 11:33:49;;;;;;;11.15;3.08;;;25.70;99.90;;;;;;5057083;28;20294;-48
2023/08/20 11:36:20;;;;;;;11.85;3.30;;;25.50;99.90;;;;;;5054856;28;20499;-44
2023/08/20 11:38:53;;;;;;;7.82;2.38;;;25.40;99.90;;;;;;5056350;28;20036;-48
2023/08/20 11:41:23;;;;;;;8.13;3.28;;;25.40;99.90;;;;;;5054039;28;20141;-49
2023/08/20 11:43:50;;;;;;;8.23;3.85;;;25.40;99.90;;;;;;5057241;28;20049;-45
2023/08/20 11:46:19;;;;;;;10.75;3.63;;;25.50;99.90;;;;;;5054592;28;20041;-46
2023/08/20 11:49:03;;;;;;;9.65;2.42;;;25.60;99.90;;;;;;5037455;28;20123;-47
2023/08/20 11:51:34;;;;;;;8.90;3.10;;;25.70;99.90;;;;;;5052345;28;20537;-48
2023/08/20 11:54:00;;;;;;;7.97;3.00;;;25.90;99.90;;;;;;5053595;28;20051;-43
2023/08/20 11:56:27;;;;;;;8.15;2.28;;;26.20;99.90;;;;;;5054028;28;20044;-46
2023/08/20 11:58:58;;;;;;;8.25;2.72;;;26.40;99.90;;;;;;5054341;28;20119;-42
2023/08/20 12:01:24;;;;;;;11.45;3.15;;;26.60;99.90;;;;;;5054436;28;20584;-43
2023/08/20 12:03:50;;;;;;;8.93;2.33;;;26.60;99.90;;;;;;5057474;28;21460;-46
2023/08/20 12:06:24;;;;;;;7.72;3.13;;;26.80;99.90;;;;;;5052747;28;20059;-51
2023/08/20 12:08:49;;;;;;;14.27;3.88;;;26.80;99.90;;;;;;5052286;28;20044;-47
2023/08/20 12:11:15;;;;;;;12.10;3.42;;;26.70;99.90;;;;;;5052961;28;20051;-41
2023/08/20 12:13:41;;;;;;;11.02;3.22;;;26.40;99.90;;;;;;5053565;28;20101;-45
2023/08/20 12:16:07;;;;;;;8.98;2.92;;;26.20;99.90;;;;;;5055146;28;20149;-44
2023/08/20 12:18:32;;;;;;;10.30;2.78;;;26.00;99.90;;;;;;5060297;28;20044;-41
2023/08/20 12:20:58;;;;;;;13.05;3.47;;;26.00;99.90;;;;;;5055481;28;20052;-46
2023/08/20 12:23:24;;;;;;;12.32;3.80;;;25.80;99.90;;;;;;5053711;28;20032;-50
2023/08/20 12:25:51;;;;;;;10.18;3.15;;;25.60;99.90;;;;;;5055769;28;20521;-47
2023/08/20 12:28:17;;;;;;;13.63;3.13;;;25.50;99.90;;;;;;5085642;27;20150;-48
2023/08/20 12:30:43;;;;;;;10.65;2.63;;;25.60;99.90;;;;;;5055736;28;20542;-44
2023/08/20 12:33:10;;;;;;;9.32;2.70;;;25.70;99.90;;;;;;5056691;28;20075;-45
2023/08/20 12:35:36;;;;;;;12.10;2.88;;;25.90;99.90;;;;;;5055405;28;20052;-48